createdAt,value
2022-12-12T00:00:44.799Z,100.00
2022-12-12T00:03:12.038Z,100.00
2022-12-12T00:05:39.028Z,100.00
2022-12-12T00:08:06.127Z,100.00
2022-12-12T00:10:33.983Z,100.00
2022-12-12T00:13:01.563Z,100.00
2022-12-12T00:15:28.804Z,100.00
2022-12-12T00:17:56.457Z,100.00
2022-12-12T00:20:23.436Z,100.00
2022-12-12T00:22:50.351Z,100.00
2022-12-12T00:25:17.426Z,100.00
2022-12-12T00:27:44.533Z,100.00
2022-12-12T00:30:12.344Z,100.00
2022-12-12T00:32:39.679Z,100.00
2022-12-12T00:35:07.387Z,100.00
2022-12-12T00:37:34.462Z,100.00
2022-12-12T00:40:02.272Z,100.00
2022-12-12T00:42:29.221Z,100.00
2022-12-12T00:44:56.160Z,100.00
2022-12-12T00:47:23.142Z,100.00
2022-12-12T00:49:50.274Z,100.00
2022-12-12T00:52:17.256Z,100.00
2022-12-12T00:54:44.297Z,100.00
2022-12-12T00:57:11.311Z,100.00
2022-12-12T00:59:38.349Z,100.00
2022-12-12T01:02:05.380Z,100.00
2022-12-12T01:04:32.484Z,100.00
2022-12-12T01:06:59.408Z,100.00
2022-12-12T01:09:26.534Z,100.00
2022-12-12T01:11:53.474Z,100.00
2022-12-12T01:14:20.492Z,100.00
2022-12-12T01:16:47.451Z,100.00
2022-12-12T01:19:14.336Z,100.00
2022-12-12T01:21:41.281Z,100.00
2022-12-12T01:24:08.513Z,100.00
2022-12-12T01:26:37.164Z,100.00
2022-12-12T01:29:04.281Z,100.00
2022-12-12T01:31:31.292Z,100.00
2022-12-12T01:33:58.374Z,100.00
2022-12-12T01:36:25.744Z,100.00
2022-12-12T01:38:55.138Z,100.00
2022-12-12T01:41:22.567Z,100.00
2022-12-12T01:43:50.187Z,100.00
2022-12-12T01:46:44.665Z,100.00
2022-12-12T01:49:24.436Z,100.00
2022-12-12T01:52:01.442Z,100.00
2022-12-12T01:54:32.805Z,100.00
2022-12-12T01:57:04.880Z,100.00
2022-12-12T01:59:34.282Z,100.00
2022-12-12T02:02:01.465Z,100.00
2022-12-12T02:04:28.736Z,100.00
2022-12-12T02:06:56.258Z,100.00
2022-12-12T02:09:25.344Z,100.00
2022-12-12T02:11:56.632Z,100.00
2022-12-12T02:14:35.248Z,100.00
2022-12-12T02:17:20.652Z,100.00
2022-12-12T02:20:22.003Z,100.00
2022-12-12T02:23:00.853Z,100.00
2022-12-12T02:26:14.768Z,100.00
2022-12-12T02:28:59.665Z,100.00
2022-12-12T02:31:31.579Z,100.00
2022-12-12T02:34:15.853Z,100.00
2022-12-12T02:37:01.663Z,100.00
2022-12-12T02:39:58.875Z,100.00
2022-12-12T02:42:46.833Z,100.00
2022-12-12T02:45:51.071Z,100.00
2022-12-12T02:48:35.949Z,100.00
2022-12-12T02:51:07.065Z,100.00
2022-12-12T02:53:34.044Z,100.00
2022-12-12T02:56:29.462Z,100.00
2022-12-12T02:58:56.578Z,100.00
2022-12-12T03:01:39.088Z,100.00
2022-12-12T03:04:49.789Z,100.00
2022-12-12T03:07:47.768Z,100.00
2022-12-12T03:10:45.751Z,100.00
2022-12-12T03:13:20.606Z,100.00
2022-12-12T03:16:29.848Z,100.00
2022-12-12T03:19:10.950Z,100.00
2022-12-12T03:21:52.376Z,100.00
2022-12-12T03:24:37.868Z,100.00
2022-12-12T03:27:18.564Z,100.00
2022-12-12T03:29:54.968Z,100.00
2022-12-12T03:32:31.184Z,100.00
2022-12-12T03:35:12.386Z,100.00
2022-12-12T03:37:47.877Z,100.00
2022-12-12T03:40:25.505Z,100.00
2022-12-12T03:43:07.211Z,100.00
2022-12-12T03:45:43.425Z,100.00
2022-12-12T03:48:29.328Z,100.00
2022-12-12T03:51:04.809Z,100.00
2022-12-12T03:54:17.580Z,100.00
2022-12-12T03:57:12.387Z,100.00
2022-12-12T03:59:45.765Z,100.00
2022-12-12T04:02:30.005Z,100.00
2022-12-12T04:05:10.609Z,100.00
2022-12-12T04:07:45.419Z,100.00
2022-12-12T04:10:31.698Z,100.00
2022-12-12T04:12:58.684Z,100.00
2022-12-12T04:15:55.929Z,100.00
2022-12-12T04:18:40.867Z,100.00
2022-12-12T04:21:54.890Z,100.00
2022-12-12T04:24:46.508Z,100.00
2022-12-12T04:27:25.875Z,100.00
2022-12-12T04:30:09.952Z,100.00
2022-12-12T04:33:08.102Z,100.00
2022-12-12T04:35:45.751Z,100.00
2022-12-12T04:38:24.121Z,100.00
2022-12-12T04:40:56.019Z,100.00
2022-12-12T04:43:29.502Z,100.00
2022-12-12T04:46:07.739Z,100.00
2022-12-12T04:48:44.157Z,100.00
2022-12-12T04:51:17.139Z,100.00
2022-12-12T04:54:13.578Z,100.00
2022-12-12T04:56:44.917Z,100.00
2022-12-12T04:59:12.751Z,100.00
2022-12-12T05:02:02.326Z,100.00
2022-12-12T05:04:41.583Z,100.00
2022-12-12T05:07:16.592Z,100.00
2022-12-12T05:09:43.975Z,100.00
2022-12-12T05:12:10.975Z,100.00
2022-12-12T05:14:37.886Z,100.00
2022-12-12T05:17:12.049Z,100.00
2022-12-12T05:19:38.927Z,100.00
2022-12-12T05:22:05.849Z,100.00
2022-12-12T05:24:32.784Z,100.00
2022-12-12T05:27:00.484Z,100.00
2022-12-12T05:32:02.946Z,100.00
2022-12-12T05:34:30.006Z,100.00
2022-12-12T05:36:57.084Z,100.00
2022-12-12T05:39:24.111Z,100.00
2022-12-12T05:41:51.872Z,100.00
2022-12-12T05:44:18.825Z,100.00
2022-12-12T05:46:45.775Z,100.00
2022-12-12T05:49:12.787Z,100.00
2022-12-12T05:51:39.854Z,100.00
2022-12-12T05:54:06.861Z,100.00
2022-12-12T05:56:33.745Z,100.00
2022-12-12T05:59:00.721Z,100.00
2022-12-12T06:01:27.683Z,100.00
2022-12-12T06:03:54.646Z,100.00
2022-12-12T06:06:21.620Z,100.00
2022-12-12T06:08:48.616Z,100.00
2022-12-12T06:11:15.604Z,100.00
2022-12-12T06:13:42.576Z,100.00
2022-12-12T06:16:13.903Z,100.00
2022-12-12T06:18:40.909Z,100.00
2022-12-12T06:21:11.772Z,100.00
2022-12-12T06:23:41.147Z,100.00
2022-12-12T06:26:10.900Z,100.00
2022-12-12T06:28:38.793Z,100.00
2022-12-12T06:31:11.457Z,100.00
2022-12-12T06:33:41.143Z,100.00
2022-12-12T06:36:16.700Z,100.00
2022-12-12T06:38:43.803Z,100.00
2022-12-12T06:41:15.252Z,100.00
2022-12-12T06:43:43.103Z,100.00
2022-12-12T06:46:16.609Z,100.00
2022-12-12T06:48:44.431Z,100.00
2022-12-12T06:51:16.337Z,100.00
2022-12-12T06:53:43.667Z,100.00
2022-12-12T06:56:15.092Z,100.00
2022-12-12T06:58:42.403Z,100.00
2022-12-12T07:01:12.425Z,100.00
2022-12-12T07:03:39.998Z,100.00
2022-12-12T07:06:07.611Z,100.00
2022-12-12T07:08:35.587Z,100.00
2022-12-12T07:11:16.075Z,100.00
2022-12-12T07:13:43.811Z,100.00
2022-12-12T07:16:11.419Z,100.00
2022-12-12T07:18:38.861Z,100.00
2022-12-12T07:21:09.054Z,100.00
2022-12-12T07:23:36.482Z,100.00
2022-12-12T07:26:06.124Z,100.00
2022-12-12T07:28:33.217Z,100.00
2022-12-12T07:31:01.365Z,100.00
2022-12-12T07:33:39.510Z,100.00
2022-12-12T07:36:10.461Z,100.00
2022-12-12T07:38:37.532Z,100.00
2022-12-12T07:41:08.955Z,100.00
2022-12-12T07:43:43.396Z,100.00
2022-12-12T07:46:15.940Z,100.00
2022-12-12T07:48:43.182Z,100.00
2022-12-12T07:51:10.143Z,100.00
2022-12-12T07:53:37.111Z,100.00
2022-12-12T07:56:09.943Z,100.00
2022-12-12T07:58:37.445Z,100.00
2022-12-12T08:01:20.528Z,100.00
2022-12-12T08:03:49.210Z,100.00
2022-12-12T08:06:19.069Z,100.00
2022-12-12T08:08:47.296Z,100.00
2022-12-12T08:11:19.078Z,100.00
2022-12-12T08:13:46.364Z,100.00
2022-12-12T08:16:18.443Z,100.00
2022-12-12T08:18:46.225Z,100.00
2022-12-12T08:21:18.717Z,100.00
2022-12-12T08:23:50.180Z,100.00
2022-12-12T08:26:18.480Z,100.00
2022-12-12T08:28:48.985Z,100.00
2022-12-12T08:31:17.386Z,100.00
2022-12-12T08:33:45.377Z,100.00
2022-12-12T08:36:16.045Z,100.00
2022-12-12T08:38:44.227Z,100.00
2022-12-12T08:41:12.203Z,100.00
2022-12-12T08:43:41.724Z,100.00
2022-12-12T08:46:16.779Z,100.00
2022-12-12T08:48:46.231Z,100.00
2022-12-12T08:51:14.404Z,100.00
2022-12-12T08:53:45.775Z,100.00
2022-12-12T08:56:13.756Z,100.00
2022-12-12T08:58:40.697Z,100.00
2022-12-12T09:01:19.905Z,100.00
2022-12-12T09:03:47.996Z,100.00
2022-12-12T09:06:16.366Z,100.00
2022-12-12T09:08:45.573Z,100.00
2022-12-12T09:11:13.041Z,100.00
2022-12-12T09:13:40.896Z,100.00
2022-12-12T09:16:09.201Z,100.00
2022-12-12T09:18:37.305Z,100.00
2022-12-12T09:21:05.227Z,100.00
2022-12-12T09:23:32.683Z,100.00
2022-12-12T09:26:07.455Z,100.00
2022-12-12T09:28:34.897Z,100.00
2022-12-12T09:31:08.711Z,100.00
2022-12-12T09:33:36.499Z,100.00
2022-12-12T09:36:07.837Z,100.00
2022-12-12T09:38:35.470Z,100.00
2022-12-12T09:41:19.622Z,100.00
2022-12-12T09:44:07.545Z,100.00
2022-12-12T09:46:37.588Z,100.00
2022-12-12T09:49:27.281Z,100.00
2022-12-12T09:51:56.210Z,100.00
2022-12-12T09:54:26.975Z,100.00
2022-12-12T09:57:33.277Z,100.00
2022-12-12T10:00:09.534Z,100.00
2022-12-12T10:03:04.004Z,100.00
2022-12-12T10:06:35.815Z,100.00
2022-12-12T10:09:35.014Z,100.00
2022-12-12T10:12:08.552Z,100.00
2022-12-12T10:14:43.603Z,100.00
2022-12-12T10:17:44.614Z,100.00
2022-12-12T10:20:21.364Z,100.00
2022-12-12T10:23:15.828Z,100.00
2022-12-12T10:25:53.066Z,100.00
2022-12-12T10:28:25.217Z,100.00
2022-12-12T10:31:14.141Z,100.00
2022-12-12T10:34:18.164Z,100.00
2022-12-12T10:37:24.289Z,100.00
2022-12-12T10:40:10.806Z,100.00
2022-12-12T10:43:02.754Z,100.00
2022-12-12T10:45:48.470Z,100.00
2022-12-12T10:48:16.876Z,100.00
2022-12-12T10:51:01.727Z,100.00
2022-12-12T10:53:30.331Z,100.00
2022-12-12T10:56:03.573Z,100.00
2022-12-12T10:58:44.697Z,100.00
2022-12-12T11:02:00.224Z,99.16
2022-12-12T11:04:15.821Z,98.95
2022-12-12T11:06:49.415Z,98.25
2022-12-12T11:09:27.835Z,97.80
2022-12-12T11:12:04.295Z,96.91
2022-12-12T11:14:40.834Z,92.73
2022-12-12T11:17:30.084Z,86.71
2022-12-12T11:20:00.875Z,85.58
2022-12-12T11:22:32.499Z,82.77
2022-12-12T11:25:00.601Z,86.13
2022-12-12T11:27:36.535Z,92.12
2022-12-12T11:30:32.832Z,98.07
2022-12-12T11:33:00.110Z,98.64
2022-12-12T11:35:41.244Z,100.00
2022-12-12T11:38:31.546Z,100.00
2022-12-12T11:41:06.026Z,100.00
2022-12-12T11:43:37.310Z,100.00
2022-12-12T11:46:15.033Z,100.00
2022-12-12T11:48:53.781Z,100.00
2022-12-12T11:51:38.375Z,99.63
2022-12-12T11:54:10.888Z,95.82
2022-12-12T11:57:03.553Z,94.14
2022-12-12T11:59:39.315Z,92.84
2022-12-12T12:02:47.050Z,94.35
2022-12-12T12:05:32.000Z,96.54
2022-12-12T12:08:50.581Z,93.79
2022-12-12T12:11:54.979Z,90.87
2022-12-12T12:14:28.257Z,88.78
2022-12-12T12:17:11.961Z,84.88
2022-12-12T12:20:07.737Z,78.20
2022-12-12T12:23:15.836Z,76.26
2022-12-12T12:25:55.704Z,77.08
2022-12-12T12:28:31.599Z,77.42
2022-12-12T12:31:10.745Z,78.05
2022-12-12T12:34:30.742Z,77.11
2022-12-12T12:37:15.716Z,75.18
2022-12-12T12:40:15.972Z,74.46
2022-12-12T12:43:14.602Z,72.46
2022-12-12T12:45:49.509Z,71.16
2022-12-12T12:48:24.651Z,74.35
2022-12-12T12:51:05.715Z,76.55
2022-12-12T12:53:50.264Z,70.54
2022-12-12T12:56:26.942Z,71.57
2022-12-12T12:59:10.516Z,70.46
2022-12-12T13:01:45.539Z,68.78
2022-12-12T13:04:29.476Z,66.02
2022-12-12T13:07:04.433Z,62.98
2022-12-12T13:10:03.704Z,61.81
2022-12-12T13:12:54.286Z,60.27
2022-12-12T13:15:33.138Z,63.15
2022-12-12T13:18:05.041Z,62.61
2022-12-12T13:21:05.036Z,60.50
2022-12-12T13:23:54.752Z,61.75
2022-12-12T13:27:14.453Z,58.82
2022-12-12T13:30:02.605Z,59.48
2022-12-12T13:33:03.906Z,58.83
2022-12-12T13:35:40.097Z,58.83
2022-12-12T13:38:27.066Z,58.43
2022-12-12T13:41:06.338Z,55.13
2022-12-12T13:43:41.871Z,55.79
2022-12-12T13:46:41.049Z,57.04
2022-12-12T13:49:23.676Z,57.60
2022-12-12T13:51:50.688Z,57.58
2022-12-12T13:54:17.559Z,57.87
2022-12-12T13:57:06.101Z,56.21
2022-12-12T13:59:54.057Z,58.07
2022-12-12T14:02:36.713Z,59.66
2022-12-12T14:05:25.619Z,63.75
2022-12-12T14:08:01.852Z,68.51
2022-12-12T14:10:43.961Z,74.54
2022-12-12T14:13:19.676Z,77.51
2022-12-12T14:16:02.303Z,86.36
2022-12-12T14:18:51.372Z,92.71
2022-12-12T14:21:21.998Z,97.54
2022-12-12T14:23:53.782Z,100.00
2022-12-12T14:26:29.794Z,100.00
2022-12-12T14:29:15.519Z,100.00
2022-12-12T14:32:12.893Z,100.00
2022-12-12T14:35:04.327Z,100.00
2022-12-12T14:38:08.816Z,100.00
2022-12-12T14:40:44.624Z,100.00
2022-12-12T14:43:28.255Z,100.00
2022-12-12T14:45:57.987Z,100.00
2022-12-12T14:48:35.482Z,100.00
2022-12-12T14:51:14.347Z,100.00
2022-12-12T14:53:51.621Z,100.00
2022-12-12T14:56:28.811Z,100.00
2022-12-12T14:58:55.645Z,100.00
2022-12-12T15:01:44.574Z,100.00
2022-12-12T15:04:19.900Z,100.00
2022-12-12T15:06:58.650Z,100.00
2022-12-12T15:09:35.542Z,100.00
2022-12-12T15:12:35.104Z,100.00
2022-12-12T15:15:05.075Z,100.00
2022-12-12T15:17:48.216Z,100.00
2022-12-12T15:20:20.905Z,100.00
2022-12-12T15:22:57.168Z,100.00
2022-12-12T15:25:32.709Z,100.00
2022-12-12T15:28:01.297Z,100.00
2022-12-12T15:30:44.948Z,100.00
2022-12-12T15:33:24.817Z,100.00
2022-12-12T15:36:01.214Z,100.00
2022-12-12T15:38:29.986Z,100.00
2022-12-12T15:41:06.650Z,100.00
2022-12-12T15:43:38.803Z,100.00
2022-12-12T15:46:16.133Z,100.00
2022-12-12T15:48:49.658Z,100.00
2022-12-12T15:51:24.618Z,100.00
2022-12-12T15:53:53.920Z,100.00
2022-12-12T15:56:20.741Z,100.00
2022-12-12T15:59:14.256Z,100.00
2022-12-12T16:01:41.618Z,100.00
2022-12-12T16:04:08.513Z,100.00
2022-12-12T16:06:46.863Z,100.00
2022-12-12T16:09:20.378Z,100.00
2022-12-12T16:11:48.420Z,100.00
2022-12-12T16:14:41.297Z,100.00
2022-12-12T16:17:23.391Z,100.00
2022-12-12T16:20:00.727Z,100.00
2022-12-12T16:22:39.513Z,100.00
2022-12-12T16:25:16.592Z,100.00
2022-12-12T16:27:44.336Z,100.00
2022-12-12T16:30:16.284Z,100.00
2022-12-12T16:32:44.200Z,100.00
2022-12-12T16:35:20.716Z,100.00
2022-12-12T16:37:48.525Z,100.00
2022-12-12T16:40:18.657Z,100.00
2022-12-12T16:42:55.856Z,100.00
2022-12-12T16:45:23.034Z,100.00
2022-12-12T16:47:50.043Z,100.00
2022-12-12T16:50:17.059Z,100.00
2022-12-12T16:52:44.112Z,100.00
2022-12-12T16:55:22.534Z,100.00
2022-12-12T16:57:49.596Z,100.00
2022-12-12T17:00:17.262Z,100.00
2022-12-12T17:02:44.540Z,100.00
2022-12-12T17:05:24.291Z,100.00
2022-12-12T17:07:52.730Z,100.00
2022-12-12T17:10:25.244Z,100.00
2022-12-12T17:12:54.252Z,100.00
2022-12-12T17:15:25.391Z,100.00
2022-12-12T17:17:52.651Z,100.00
2022-12-12T17:20:19.604Z,100.00
2022-12-12T17:22:47.003Z,100.00
2022-12-12T17:25:14.991Z,100.00
2022-12-12T17:27:42.835Z,100.00
2022-12-12T17:30:12.221Z,100.00
2022-12-12T17:32:39.683Z,100.00
2022-12-12T17:35:07.956Z,100.00
2022-12-12T17:37:35.748Z,100.00
2022-12-12T17:40:04.851Z,100.00
2022-12-12T17:42:33.369Z,100.00
2022-12-12T17:45:00.358Z,100.00
2022-12-12T17:47:27.327Z,100.00
2022-12-12T17:49:54.319Z,100.00
2022-12-12T17:52:21.325Z,100.00
2022-12-12T17:55:52.151Z,100.00
2022-12-12T17:57:36.532Z,100.00
2022-12-12T18:00:05.526Z,100.00
2022-12-12T18:02:40.335Z,100.00
2022-12-12T18:05:09.736Z,100.00
2022-12-12T18:07:37.316Z,100.00
2022-12-12T18:10:04.972Z,100.00
2022-12-12T18:12:32.074Z,100.00
2022-12-12T18:14:59.042Z,100.00
2022-12-12T18:17:25.941Z,100.00
2022-12-12T18:19:52.895Z,100.00
2022-12-12T18:22:19.987Z,100.00
2022-12-12T18:24:50.075Z,100.00
2022-12-12T18:27:17.036Z,100.00
2022-12-12T18:29:44.522Z,100.00
2022-12-12T18:32:11.578Z,100.00
2022-12-12T18:34:38.728Z,100.00
2022-12-12T18:37:05.776Z,100.00
2022-12-12T18:39:32.785Z,100.00
2022-12-12T18:41:59.761Z,100.00
2022-12-12T18:44:26.714Z,100.00
2022-12-12T18:46:53.821Z,100.00
2022-12-12T18:49:20.815Z,100.00
2022-12-12T18:51:48.701Z,100.00
2022-12-12T18:54:17.268Z,100.00
2022-12-12T18:56:46.695Z,100.00
2022-12-12T18:59:14.870Z,100.00
2022-12-12T19:01:42.040Z,100.00
2022-12-12T19:04:13.455Z,100.00
2022-12-12T19:06:42.975Z,100.00
2022-12-12T19:09:19.329Z,100.00
2022-12-12T19:11:47.496Z,100.00
2022-12-12T19:14:16.600Z,100.00
2022-12-12T19:16:44.898Z,100.00
2022-12-12T19:19:12.508Z,100.00
2022-12-12T19:21:41.631Z,100.00
2022-12-12T19:24:10.573Z,100.00
2022-12-12T19:26:40.501Z,100.00
2022-12-12T19:29:15.855Z,100.00
2022-12-12T19:31:44.157Z,100.00
2022-12-12T19:34:13.467Z,100.00
2022-12-12T19:36:41.103Z,100.00
2022-12-12T19:39:10.772Z,100.00
2022-12-12T19:41:37.783Z,100.00
2022-12-12T19:44:08.686Z,100.00
2022-12-12T19:46:35.869Z,100.00
2022-12-12T19:49:07.035Z,100.00
2022-12-12T19:51:36.074Z,100.00
2022-12-12T19:54:12.484Z,100.00
2022-12-12T19:56:42.723Z,100.00
2022-12-12T19:59:17.084Z,100.00
2022-12-12T20:01:44.873Z,100.00
2022-12-12T20:04:18.182Z,100.00
2022-12-12T20:06:46.682Z,100.00
2022-12-12T20:09:26.643Z,100.00
2022-12-12T20:11:55.198Z,100.00
2022-12-12T20:14:26.028Z,100.00
2022-12-12T20:16:54.370Z,100.00
2022-12-12T20:19:23.315Z,100.00
2022-12-12T20:22:00.959Z,100.00
2022-12-12T20:24:29.118Z,100.00
2022-12-12T20:26:56.965Z,100.00
2022-12-12T20:29:24.078Z,100.00
2022-12-12T20:31:51.686Z,100.00
2022-12-12T20:34:24.499Z,100.00
2022-12-12T20:36:54.957Z,100.00
2022-12-12T20:39:22.686Z,100.00
2022-12-12T20:41:53.486Z,100.00
2022-12-12T20:44:20.631Z,100.00
2022-12-12T20:46:47.659Z,100.00
2022-12-12T20:49:18.430Z,100.00
2022-12-12T20:51:55.185Z,100.00
2022-12-12T20:54:24.835Z,100.00
2022-12-12T20:56:53.349Z,100.00
2022-12-12T20:59:20.407Z,100.00
2022-12-12T21:01:47.847Z,100.00
2022-12-12T21:04:15.418Z,100.00
2022-12-12T21:06:44.879Z,100.00
2022-12-12T21:09:16.210Z,100.00
2022-12-12T21:11:44.905Z,100.00
2022-12-12T21:14:11.877Z,100.00
2022-12-12T21:16:39.975Z,100.00
2022-12-12T21:19:11.489Z,100.00
2022-12-12T21:21:41.566Z,100.00
2022-12-12T21:24:11.288Z,100.00
2022-12-12T21:26:38.848Z,100.00
2022-12-12T21:29:06.080Z,100.00
2022-12-12T21:31:37.046Z,100.00
2022-12-12T21:34:06.003Z,100.00
2022-12-12T21:36:34.035Z,100.00
2022-12-12T21:39:03.191Z,100.00
2022-12-12T21:41:30.261Z,100.00
2022-12-12T21:43:59.525Z,100.00
2022-12-12T21:46:29.006Z,100.00
2022-12-12T21:49:15.088Z,100.00
2022-12-12T21:51:42.710Z,100.00
2022-12-12T21:54:12.494Z,100.00
2022-12-12T21:56:41.080Z,100.00
2022-12-12T21:59:08.297Z,100.00
2022-12-12T22:01:35.534Z,100.00
2022-12-12T22:04:02.627Z,100.00
2022-12-12T22:06:34.489Z,100.00
2022-12-12T22:09:05.175Z,100.00
2022-12-12T22:11:47.407Z,100.00
2022-12-12T22:14:19.297Z,100.00
2022-12-12T22:16:46.528Z,100.00
2022-12-12T22:19:15.792Z,100.00
2022-12-12T22:21:46.641Z,100.00
2022-12-12T22:24:14.782Z,100.00
2022-12-12T22:26:46.522Z,100.00
2022-12-12T22:29:16.926Z,100.00
2022-12-12T22:31:45.099Z,100.00
2022-12-12T22:34:17.597Z,100.00
2022-12-12T22:36:46.033Z,100.00
2022-12-12T22:39:16.256Z,100.00
2022-12-12T22:41:43.684Z,100.00
2022-12-12T22:44:14.761Z,100.00
2022-12-12T22:46:44.256Z,100.00
2022-12-12T22:49:16.772Z,100.00
2022-12-12T22:51:44.780Z,100.00
2022-12-12T22:54:12.347Z,100.00
2022-12-12T22:56:40.415Z,100.00
2022-12-12T22:59:09.851Z,100.00
2022-12-12T23:01:37.259Z,100.00
2022-12-12T23:04:04.759Z,100.00
2022-12-12T23:06:34.267Z,100.00
2022-12-12T23:09:04.825Z,100.00
2022-12-12T23:11:32.917Z,100.00
2022-12-12T23:14:03.770Z,100.00
2022-12-12T23:16:31.585Z,100.00
2022-12-12T23:18:59.288Z,100.00
2022-12-12T23:21:27.179Z,100.00
2022-12-12T23:23:55.485Z,100.00
2022-12-12T23:26:26.127Z,100.00
2022-12-12T23:28:53.502Z,100.00
2022-12-12T23:31:26.891Z,100.00
2022-12-12T23:33:59.835Z,100.00
2022-12-12T23:36:27.795Z,100.00
2022-12-12T23:39:00.276Z,100.00
2022-12-12T23:41:28.581Z,100.00
2022-12-12T23:43:56.592Z,100.00
2022-12-12T23:46:32.147Z,100.00
2022-12-12T23:49:02.286Z,100.00
2022-12-12T23:51:31.659Z,100.00
2022-12-12T23:54:00.103Z,100.00
2022-12-12T23:56:27.916Z,100.00
2022-12-12T23:58:56.282Z,100.00
